createdAt,value
2017-10-10T00:00:44.856Z,0
2017-10-10T00:01:55.267Z,0
2017-10-10T00:03:05.668Z,0
2017-10-10T00:04:16.079Z,0
2017-10-10T00:05:25.809Z,0
2017-10-10T00:06:36.218Z,0
2017-10-10T00:07:47.330Z,0
2017-10-10T00:08:57.766Z,0
2017-10-10T00:10:07.890Z,0
2017-10-10T00:11:17.971Z,0
2017-10-10T00:12:28.373Z,0
2017-10-10T00:13:38.467Z,0
2017-10-10T00:14:48.868Z,0
2017-10-10T00:15:59.263Z,0
2017-10-10T00:17:09.696Z,0
2017-10-10T00:18:19.769Z,0
2017-10-10T00:19:30.172Z,0
2017-10-10T00:20:40.572Z,0
2017-10-10T00:21:50.976Z,0
2017-10-10T00:23:01.380Z,0
2017-10-10T00:24:11.780Z,0
2017-10-10T00:25:22.217Z,0
2017-10-10T00:26:32.303Z,0
2017-10-10T00:27:42.771Z,0
2017-10-10T00:28:53.174Z,0
2017-10-10T00:30:03.582Z,0
2017-10-10T00:31:13.992Z,0
2017-10-10T00:32:24.421Z,0
2017-10-10T00:33:34.875Z,0
2017-10-10T00:34:45.308Z,0
2017-10-10T00:35:55.714Z,0
2017-10-10T00:37:05.799Z,0
2017-10-10T00:38:16.238Z,0
2017-10-10T00:39:26.650Z,0
2017-10-10T00:40:37.041Z,0
2017-10-10T00:41:47.110Z,0
2017-10-10T00:42:57.508Z,0
2017-10-10T00:44:07.917Z,0
2017-10-10T00:45:18.355Z,0
2017-10-10T00:46:28.739Z,0
2017-10-10T00:47:38.816Z,0
2017-10-10T00:48:49.223Z,0
2017-10-10T00:49:59.624Z,0
2017-10-10T00:51:10.086Z,0
2017-10-10T00:52:20.175Z,0
2017-10-10T00:53:30.250Z,0
2017-10-10T00:54:40.316Z,0
2017-10-10T00:55:50.387Z,0
2017-10-10T00:57:00.782Z,0
2017-10-10T00:58:11.176Z,0
2017-10-10T00:59:21.575Z,0
2017-10-10T01:00:31.967Z,0
2017-10-10T01:01:42.370Z,0
2017-10-10T01:02:52.772Z,0
2017-10-10T01:04:02.881Z,0
2017-10-10T01:05:13.299Z,0
2017-10-10T01:06:23.688Z,0
2017-10-10T01:07:33.759Z,0
2017-10-10T01:08:44.165Z,0
2017-10-10T01:09:54.251Z,0
2017-10-10T01:11:04.655Z,0
2017-10-10T01:12:14.727Z,0
2017-10-10T01:13:25.152Z,0
2017-10-10T01:14:35.223Z,0
2017-10-10T01:15:45.623Z,0
2017-10-10T01:16:55.362Z,0
2017-10-10T01:18:05.764Z,0
2017-10-10T01:19:15.850Z,0
2017-10-10T01:20:25.656Z,0
2017-10-10T01:21:35.740Z,0
2017-10-10T01:22:45.823Z,0
2017-10-10T01:23:56.213Z,0
2017-10-10T01:25:06.620Z,0
2017-10-10T01:26:17.011Z,0
2017-10-10T01:27:27.415Z,0
2017-10-10T01:28:37.815Z,0
2017-10-10T01:29:48.214Z,0
2017-10-10T01:30:58.624Z,0
2017-10-10T01:32:08.747Z,0
2017-10-10T01:33:19.147Z,0
2017-10-10T01:34:29.568Z,0
2017-10-10T01:35:39.960Z,0
2017-10-10T01:36:50.356Z,0
2017-10-10T01:38:00.629Z,0
2017-10-10T01:39:11.043Z,0
2017-10-10T01:40:21.467Z,0
2017-10-10T01:41:31.876Z,0
2017-10-10T01:42:42.281Z,0
2017-10-10T01:43:52.715Z,0
2017-10-10T01:45:02.796Z,0
2017-10-10T01:46:13.213Z,0
2017-10-10T01:47:23.606Z,0
2017-10-10T01:48:33.667Z,0
2017-10-10T01:49:43.783Z,0
2017-10-10T01:50:54.180Z,0
2017-10-10T01:52:03.913Z,0
2017-10-10T01:53:13.982Z,0
2017-10-10T01:54:24.386Z,0
2017-10-10T01:55:34.452Z,0
2017-10-10T01:56:44.858Z,0
2017-10-10T01:57:54.932Z,0
2017-10-10T01:59:05.338Z,0
2017-10-10T02:00:15.760Z,0
2017-10-10T02:01:26.217Z,0
2017-10-10T02:02:36.618Z,0
2017-10-10T02:03:47.039Z,0
2017-10-10T02:04:57.500Z,0
2017-10-10T02:06:07.917Z,0
2017-10-10T02:07:18.045Z,0
2017-10-10T02:08:28.119Z,0
2017-10-10T02:09:38.227Z,0
2017-10-10T02:10:48.281Z,0
2017-10-10T02:11:58.369Z,0
2017-10-10T02:13:08.490Z,0
2017-10-10T02:14:18.568Z,0
2017-10-10T02:15:28.649Z,0
2017-10-10T02:16:38.728Z,0
2017-10-10T02:17:49.126Z,0
2017-10-10T02:18:59.532Z,0
2017-10-10T02:20:09.946Z,0
2017-10-10T02:21:20.344Z,0
2017-10-10T02:22:30.748Z,0
2017-10-10T02:23:41.451Z,0
2017-10-10T02:24:51.854Z,0
2017-10-10T02:26:01.937Z,0
2017-10-10T02:27:12.324Z,0
2017-10-10T02:28:22.734Z,0
2017-10-10T02:29:32.813Z,0
2017-10-10T02:30:43.214Z,0
2017-10-10T02:31:53.309Z,0
2017-10-10T02:33:03.388Z,0
2017-10-10T02:34:13.817Z,0
2017-10-10T02:35:24.215Z,0
2017-10-10T02:36:34.280Z,0
2017-10-10T02:37:44.365Z,0
2017-10-10T02:38:54.758Z,0
2017-10-10T02:40:05.180Z,0
2017-10-10T02:41:15.610Z,0
2017-10-10T02:42:26.068Z,0
2017-10-10T02:43:36.489Z,0
2017-10-10T02:44:46.564Z,0
2017-10-10T02:45:57.012Z,0
2017-10-10T02:47:07.424Z,0
2017-10-10T02:48:17.888Z,0
2017-10-10T02:49:28.296Z,0
2017-10-10T02:50:38.396Z,0
2017-10-10T02:51:48.794Z,0
2017-10-10T02:52:59.190Z,0
2017-10-10T02:54:09.324Z,0
2017-10-10T02:55:19.739Z,0
2017-10-10T02:56:29.811Z,0
2017-10-10T02:57:39.897Z,0
2017-10-10T02:58:50.295Z,0
2017-10-10T03:00:00.755Z,0
2017-10-10T03:01:11.147Z,0
2017-10-10T03:02:21.554Z,0
2017-10-10T03:34:03.205Z,0
2017-10-10T03:35:13.594Z,0
2017-10-10T03:36:23.656Z,0
2017-10-10T03:37:34.056Z,0
2017-10-10T03:38:44.467Z,0
2017-10-10T03:39:54.235Z,0
2017-10-10T03:41:04.342Z,0
2017-10-10T03:42:14.745Z,0
2017-10-10T03:43:24.829Z,0
2017-10-10T03:44:34.896Z,0
2017-10-10T03:45:45.021Z,0
2017-10-10T03:46:55.093Z,0
2017-10-10T03:48:05.494Z,0
2017-10-10T03:49:15.893Z,0
2017-10-10T03:50:25.954Z,0
2017-10-10T03:51:36.356Z,0
2017-10-10T03:52:46.439Z,0
2017-10-10T03:53:56.511Z,0
2017-10-10T03:55:06.582Z,0
2017-10-10T03:56:16.974Z,0
2017-10-10T03:57:27.105Z,0
2017-10-10T03:58:37.512Z,0
2017-10-10T03:59:47.910Z,0
2017-10-10T04:00:58.306Z,0
2017-10-10T04:02:08.369Z,0
2017-10-10T04:03:18.826Z,0
2017-10-10T04:04:28.930Z,0
2017-10-10T04:05:39.342Z,0
2017-10-10T04:06:49.406Z,0
2017-10-10T04:07:59.482Z,0
2017-10-10T04:09:09.897Z,0
2017-10-10T04:10:19.981Z,0
2017-10-10T04:11:30.382Z,0
2017-10-10T04:12:40.774Z,0
2017-10-10T04:13:50.862Z,0
2017-10-10T04:15:01.285Z,0
2017-10-10T04:16:11.683Z,0
2017-10-10T04:17:21.766Z,0
2017-10-10T04:18:32.185Z,0
2017-10-10T04:19:42.578Z,0
2017-10-10T04:20:52.981Z,0
2017-10-10T04:22:03.049Z,0
2017-10-10T04:23:13.481Z,0
2017-10-10T04:24:23.940Z,0
2017-10-10T04:25:34.621Z,0
2017-10-10T04:26:44.706Z,0
2017-10-10T04:27:55.098Z,0
2017-10-10T04:29:05.500Z,0
2017-10-10T04:30:15.582Z,0
2017-10-10T04:31:25.994Z,0
2017-10-10T04:32:36.065Z,0
2017-10-10T04:33:46.457Z,0
2017-10-10T04:34:56.545Z,0
2017-10-10T04:36:06.602Z,0
2017-10-10T04:37:17.005Z,0
2017-10-10T04:38:27.393Z,0
2017-10-10T04:39:37.805Z,0
2017-10-10T04:40:47.891Z,4
2017-10-10T04:41:58.279Z,0
2017-10-10T04:43:08.363Z,0
2017-10-10T04:44:18.773Z,4
2017-10-10T04:45:28.860Z,4
2017-10-10T04:46:39.256Z,8
2017-10-10T04:47:49.328Z,8
2017-10-10T04:48:59.730Z,8
2017-10-10T04:50:10.171Z,8
2017-10-10T04:51:20.260Z,12
2017-10-10T04:52:30.009Z,16
2017-10-10T04:53:40.404Z,20
2017-10-10T04:54:50.823Z,24
2017-10-10T04:56:01.234Z,28
2017-10-10T04:57:11.641Z,36
2017-10-10T04:58:22.067Z,40
2017-10-10T04:59:32.486Z,52
2017-10-10T05:00:42.894Z,64
2017-10-10T05:01:53.289Z,68
2017-10-10T05:03:03.691Z,80
2017-10-10T05:04:14.107Z,92
2017-10-10T05:05:24.508Z,108
2017-10-10T05:06:34.904Z,120
2017-10-10T05:07:45.296Z,132
2017-10-10T05:08:55.689Z,140
2017-10-10T05:10:06.107Z,152
2017-10-10T05:11:16.168Z,168
2017-10-10T05:12:26.582Z,188
2017-10-10T05:13:36.700Z,204
2017-10-10T05:14:47.334Z,220
2017-10-10T05:15:57.431Z,244
2017-10-10T05:17:07.830Z,264
2017-10-10T05:18:17.900Z,280
2017-10-10T05:19:28.307Z,292
2017-10-10T05:20:38.715Z,296
2017-10-10T05:21:49.114Z,304
2017-10-10T05:22:59.566Z,316
2017-10-10T05:24:09.993Z,328
2017-10-10T05:25:20.385Z,336
2017-10-10T05:26:30.776Z,344
2017-10-10T05:27:41.181Z,364
2017-10-10T05:28:51.640Z,388
2017-10-10T05:30:01.711Z,408
2017-10-10T05:31:11.788Z,424
2017-10-10T05:32:22.186Z,452
2017-10-10T05:33:32.595Z,480
2017-10-10T05:34:43.047Z,504
2017-10-10T05:35:53.451Z,520
2017-10-10T05:37:03.869Z,536
2017-10-10T05:38:14.278Z,552
2017-10-10T05:39:24.352Z,572
2017-10-10T05:40:34.456Z,592
2017-10-10T05:41:44.845Z,608
2017-10-10T05:42:54.921Z,620
2017-10-10T05:44:05.026Z,628
2017-10-10T05:45:15.429Z,628
2017-10-10T05:46:25.500Z,628
2017-10-10T05:47:35.574Z,640
2017-10-10T05:48:45.970Z,648
2017-10-10T05:49:56.400Z,640
2017-10-10T05:51:06.487Z,624
2017-10-10T05:52:16.570Z,632
2017-10-10T05:53:27.352Z,660
2017-10-10T05:54:37.757Z,636
2017-10-10T05:55:48.115Z,620
2017-10-10T05:56:58.464Z,616
2017-10-10T05:58:08.788Z,628
2017-10-10T05:59:19.121Z,640
2017-10-10T06:00:29.500Z,644
2017-10-10T06:01:39.513Z,656
2017-10-10T06:02:49.846Z,696
2017-10-10T06:04:00.188Z,748
2017-10-10T06:05:10.540Z,820
2017-10-10T06:06:20.922Z,888
2017-10-10T06:07:31.269Z,932
2017-10-10T06:08:41.280Z,964
2017-10-10T06:09:51.632Z,992
2017-10-10T06:11:01.965Z,1024
2017-10-10T06:12:12.314Z,1040
2017-10-10T06:13:22.014Z,1048
2017-10-10T06:14:32.350Z,1052
2017-10-10T06:15:42.696Z,1056
2017-10-10T06:16:53.042Z,1068
2017-10-10T06:18:03.040Z,1080
2017-10-10T06:19:13.398Z,1084
2017-10-10T06:20:23.420Z,1076
2017-10-10T06:21:33.759Z,1056
2017-10-10T06:22:43.774Z,1032
2017-10-10T06:23:54.137Z,1016
2017-10-10T06:25:04.501Z,1020
2017-10-10T06:26:14.511Z,1044
2017-10-10T06:27:24.513Z,1076
2017-10-10T06:28:34.866Z,1132
2017-10-10T06:29:44.901Z,1204
2017-10-10T06:30:55.247Z,1280
2017-10-10T06:32:05.675Z,1348
2017-10-10T06:33:16.076Z,1424
2017-10-10T06:34:26.416Z,1496
2017-10-10T06:35:36.779Z,1556
2017-10-10T06:36:46.481Z,1620
2017-10-10T06:37:56.502Z,1692
2017-10-10T06:39:06.531Z,1768
2017-10-10T06:40:15.896Z,1836
2017-10-10T06:41:25.899Z,1880
2017-10-10T06:42:36.220Z,1912
2017-10-10T06:43:45.922Z,1936
2017-10-10T06:44:56.279Z,1940
2017-10-10T06:46:06.611Z,1932
2017-10-10T06:47:16.968Z,1916
2017-10-10T06:48:27.303Z,1888
2017-10-10T06:49:37.640Z,1816
2017-10-10T06:50:47.979Z,1740
2017-10-10T06:51:58.320Z,1700
2017-10-10T06:53:08.660Z,1700
2017-10-10T06:54:18.677Z,1716
2017-10-10T06:55:29.005Z,1720
2017-10-10T06:56:38.702Z,1696
2017-10-10T06:57:48.379Z,1648
2017-10-10T06:58:58.710Z,1604
2017-10-10T07:00:08.741Z,1608
2017-10-10T07:01:19.074Z,1656
2017-10-10T07:02:29.429Z,1720
2017-10-10T07:03:39.773Z,1784
2017-10-10T07:04:49.790Z,1852
2017-10-10T07:06:00.136Z,1884
2017-10-10T07:07:10.696Z,1892
2017-10-10T07:08:21.024Z,1908
2017-10-10T07:09:30.721Z,1908
2017-10-10T07:10:40.775Z,1884
2017-10-10T07:11:51.346Z,1824
2017-10-10T07:13:01.037Z,1748
2017-10-10T07:14:11.392Z,1700
2017-10-10T07:15:21.091Z,1664
2017-10-10T07:16:32.111Z,1632
2017-10-10T07:17:42.129Z,1636
2017-10-10T07:18:52.468Z,1660
2017-10-10T07:20:03.018Z,1712
2017-10-10T07:21:13.351Z,1736
2017-10-10T07:22:23.697Z,1816
2017-10-10T07:23:34.028Z,1920
2017-10-10T07:24:44.378Z,2056
2017-10-10T07:25:54.395Z,2184
2017-10-10T07:27:04.414Z,2272
2017-10-10T07:28:14.694Z,2328
2017-10-10T07:29:24.431Z,2340
2017-10-10T07:30:35.987Z,2284
2017-10-10T07:31:48.571Z,2176
2017-10-10T07:32:58.696Z,2036
2017-10-10T07:34:09.483Z,1888
2017-10-10T07:35:20.473Z,1732
2017-10-10T07:36:30.822Z,1604
2017-10-10T07:37:41.169Z,1528
2017-10-10T07:38:51.181Z,1452
2017-10-10T07:40:01.529Z,1364
2017-10-10T07:41:11.858Z,1284
2017-10-10T07:42:22.204Z,1232
2017-10-10T07:43:32.533Z,1208
2017-10-10T07:44:42.869Z,1228
2017-10-10T07:45:53.197Z,1268
2017-10-10T07:47:03.535Z,1304
2017-10-10T07:48:13.873Z,1328
2017-10-10T07:49:24.201Z,1364
2017-10-10T07:50:34.541Z,1448
2017-10-10T07:51:44.563Z,1540
2017-10-10T07:52:54.903Z,1584
2017-10-10T07:54:05.270Z,1616
2017-10-10T07:55:15.615Z,1644
2017-10-10T07:56:25.969Z,1656
2017-10-10T07:57:36.342Z,1708
2017-10-10T07:58:46.709Z,1764
2017-10-10T07:59:57.050Z,1776
2017-10-10T08:01:07.398Z,1744
2017-10-10T08:02:17.732Z,1684
2017-10-10T08:03:28.075Z,1624
2017-10-10T08:04:38.098Z,1564
2017-10-10T08:05:48.097Z,1536
2017-10-10T08:06:58.489Z,1552
2017-10-10T08:08:08.837Z,1616
2017-10-10T08:09:19.180Z,1656
2017-10-10T08:10:29.507Z,1644
2017-10-10T08:11:39.525Z,1624
2017-10-10T08:12:49.852Z,1600
2017-10-10T08:14:00.184Z,1568
2017-10-10T08:15:10.198Z,1580
2017-10-10T08:16:20.545Z,1620
2017-10-10T08:17:30.940Z,1704
2017-10-10T08:18:41.330Z,1788
2017-10-10T08:19:51.346Z,1812
2017-10-10T08:21:01.669Z,1804
2017-10-10T08:22:12.005Z,1852
2017-10-10T08:23:22.352Z,1924
2017-10-10T08:24:32.355Z,1960
2017-10-10T08:25:42.362Z,1988
2017-10-10T08:26:52.371Z,2020
2017-10-10T08:28:02.370Z,2032
2017-10-10T08:29:12.742Z,2060
2017-10-10T08:30:23.151Z,2096
2017-10-10T08:31:33.490Z,2096
2017-10-10T08:32:43.187Z,2136
2017-10-10T08:33:53.528Z,2184
2017-10-10T08:35:03.883Z,2268
2017-10-10T08:36:14.237Z,2400
2017-10-10T08:37:24.563Z,2540
2017-10-10T08:38:34.916Z,2592
2017-10-10T08:39:45.251Z,2540
2017-10-10T08:40:55.285Z,2496
2017-10-10T08:42:05.650Z,2448
2017-10-10T08:43:15.998Z,2388
2017-10-10T08:44:26.355Z,2376
2017-10-10T08:45:36.359Z,2452
2017-10-10T08:46:46.708Z,2684
2017-10-10T08:47:57.070Z,3024
2017-10-10T08:49:07.420Z,3312
2017-10-10T08:50:17.776Z,3344
2017-10-10T08:51:28.125Z,3204
2017-10-10T08:52:38.465Z,3132
2017-10-10T08:53:48.813Z,3236
2017-10-10T08:54:58.820Z,3428
2017-10-10T08:56:09.171Z,3492
2017-10-10T08:57:18.873Z,3380
2017-10-10T08:58:28.899Z,3264
2017-10-10T08:59:38.315Z,3284
2017-10-10T09:00:48.325Z,3304
2017-10-10T09:01:58.361Z,3236
2017-10-10T09:03:08.710Z,3164
2017-10-10T09:04:18.749Z,3104
2017-10-10T09:05:29.108Z,3068
2017-10-10T09:06:39.469Z,3076
2017-10-10T09:07:49.479Z,3080
2017-10-10T09:08:59.512Z,3012
2017-10-10T09:10:09.853Z,2884
2017-10-10T09:11:19.864Z,2820
2017-10-10T09:12:29.878Z,2772
2017-10-10T09:13:39.581Z,2780
2017-10-10T09:14:49.915Z,2788
2017-10-10T09:16:00.255Z,2788
2017-10-10T09:17:10.648Z,2768
2017-10-10T09:18:21.034Z,2736
2017-10-10T09:19:31.038Z,2684
2017-10-10T09:20:40.743Z,2652
2017-10-10T09:21:50.769Z,2640
2017-10-10T09:23:01.113Z,2640
2017-10-10T09:24:11.455Z,2644
2017-10-10T09:25:21.786Z,2644
2017-10-10T09:26:31.153Z,2660
2017-10-10T09:27:41.504Z,2676
2017-10-10T09:28:51.550Z,2708
2017-10-10T09:30:01.883Z,2756
2017-10-10T09:31:12.250Z,2840
2017-10-10T09:32:22.578Z,2940
2017-10-10T09:33:32.927Z,3040
2017-10-10T09:34:42.615Z,3104
2017-10-10T09:35:52.632Z,3140
2017-10-10T09:37:03.001Z,3132
2017-10-10T09:38:13.340Z,3080
2017-10-10T09:39:23.366Z,2984
2017-10-10T09:40:33.419Z,2908
2017-10-10T09:41:43.104Z,2856
2017-10-10T09:42:53.440Z,2856
2017-10-10T09:44:03.154Z,2872
2017-10-10T09:45:13.521Z,2876
2017-10-10T09:46:23.573Z,2848
2017-10-10T09:47:33.957Z,2788
2017-10-10T09:48:43.976Z,2680
2017-10-10T09:49:54.324Z,2592
2017-10-10T09:51:04.673Z,2512
2017-10-10T09:52:14.373Z,2448
2017-10-10T09:53:24.376Z,2424
2017-10-10T09:54:34.410Z,2424
2017-10-10T09:55:44.776Z,2448
2017-10-10T09:56:54.795Z,2504
2017-10-10T09:58:05.150Z,2612
2017-10-10T09:59:15.486Z,2776
2017-10-10T10:00:25.844Z,2944
2017-10-10T10:01:36.191Z,3100
2017-10-10T10:02:45.909Z,3160
2017-10-10T10:03:56.261Z,3120
2017-10-10T10:05:06.692Z,3008
2017-10-10T10:06:17.042Z,2872
2017-10-10T10:07:27.399Z,2748
2017-10-10T10:08:37.417Z,2644
2017-10-10T10:09:47.426Z,2552
2017-10-10T10:10:57.789Z,2488
2017-10-10T10:12:08.139Z,2452
2017-10-10T10:13:18.158Z,2480
2017-10-10T10:14:28.509Z,2524
2017-10-10T10:15:38.850Z,2520
2017-10-10T10:16:49.252Z,2452
2017-10-10T10:17:59.294Z,2412
2017-10-10T10:19:09.650Z,2428
2017-10-10T10:20:19.989Z,2432
2017-10-10T10:21:30.330Z,2396
2017-10-10T10:22:40.675Z,2404
2017-10-10T10:23:51.015Z,2504
2017-10-10T10:25:02.061Z,2640
2017-10-10T10:26:12.611Z,2740
2017-10-10T10:27:23.123Z,2732
2017-10-10T10:28:33.830Z,2668
2017-10-10T10:29:43.908Z,2652
2017-10-10T10:30:54.252Z,2676
2017-10-10T10:32:04.594Z,2664
2017-10-10T10:33:14.987Z,2600
2017-10-10T10:34:25.083Z,2560
2017-10-10T10:35:35.125Z,2536
2017-10-10T10:36:45.142Z,2468
2017-10-10T10:37:55.499Z,2380
2017-10-10T10:39:05.852Z,2316
2017-10-10T10:40:15.633Z,2316
2017-10-10T10:41:25.674Z,2376
2017-10-10T10:42:36.022Z,2476
2017-10-10T10:43:46.389Z,2592
2017-10-10T10:44:56.764Z,2696
2017-10-10T10:46:07.144Z,2832
2017-10-10T10:47:17.503Z,3028
2017-10-10T10:48:30.491Z,3204
2017-10-10T10:49:40.658Z,3364
2017-10-10T10:50:50.707Z,3680
2017-10-10T10:52:01.063Z,4080
2017-10-10T10:53:11.408Z,4316
2017-10-10T10:54:21.751Z,4316
2017-10-10T10:55:32.110Z,4296
2017-10-10T10:56:42.492Z,4308
2017-10-10T10:57:52.558Z,4320
2017-10-10T10:59:02.911Z,4376
2017-10-10T11:00:14.202Z,4412
2017-10-10T11:01:28.605Z,4372
2017-10-10T11:02:40.181Z,4388
2017-10-10T11:03:50.591Z,4412
2017-10-10T11:05:00.937Z,4476
2017-10-10T11:06:12.192Z,4628
2017-10-10T11:07:23.027Z,4700
2017-10-10T11:08:33.031Z,4628
2017-10-10T11:09:43.107Z,4516
2017-10-10T11:10:53.466Z,4312
2017-10-10T11:12:03.811Z,4144
2017-10-10T11:13:14.149Z,4064
2017-10-10T11:14:24.505Z,4028
2017-10-10T11:15:34.895Z,4024
2017-10-10T11:16:45.245Z,4084
2017-10-10T11:17:55.293Z,4212
2017-10-10T11:19:05.671Z,4428
2017-10-10T11:20:16.023Z,4692
2017-10-10T11:21:26.374Z,4828
2017-10-10T11:22:36.732Z,4840
2017-10-10T11:23:47.112Z,4772
2017-10-10T11:24:57.485Z,4548
2017-10-10T11:26:07.860Z,4376
2017-10-10T11:27:18.254Z,4400
2017-10-10T11:28:28.603Z,4368
2017-10-10T11:29:39.453Z,4224
2017-10-10T11:30:49.485Z,4108
2017-10-10T11:31:59.849Z,4064
2017-10-10T11:33:10.200Z,4076
2017-10-10T11:34:20.236Z,4080
2017-10-10T11:35:30.582Z,4100
2017-10-10T11:36:40.924Z,4136
2017-10-10T11:37:50.935Z,4112
2017-10-10T11:39:01.282Z,4044
2017-10-10T11:40:11.648Z,3964
2017-10-10T11:41:21.996Z,3956
2017-10-10T11:42:32.056Z,4008
2017-10-10T11:43:42.073Z,4072
2017-10-10T11:44:52.117Z,4156
2017-10-10T11:46:02.493Z,4168
2017-10-10T11:47:12.540Z,4124
2017-10-10T11:48:22.888Z,4008
2017-10-10T11:49:35.029Z,3940
2017-10-10T11:50:45.749Z,3968
2017-10-10T11:51:56.094Z,3960
2017-10-10T11:53:06.122Z,3916
2017-10-10T11:54:16.139Z,3852
2017-10-10T11:55:26.476Z,3748
2017-10-10T11:56:36.902Z,3676
2017-10-10T11:57:47.267Z,3480
2017-10-10T11:58:57.607Z,3472
2017-10-10T12:00:07.636Z,3496
2017-10-10T12:01:17.981Z,3688
2017-10-10T12:02:28.369Z,3900
2017-10-10T12:03:38.075Z,4068
2017-10-10T12:04:48.136Z,4200
2017-10-10T12:05:58.478Z,4248
2017-10-10T12:07:08.506Z,4140
2017-10-10T12:08:18.577Z,3940
2017-10-10T12:09:28.930Z,3768
2017-10-10T12:10:39.293Z,3680
2017-10-10T12:11:49.026Z,3640
2017-10-10T12:13:02.360Z,3644
2017-10-10T12:14:14.472Z,3736
2017-10-10T12:15:28.557Z,4008
2017-10-10T12:16:39.837Z,5104
2017-10-10T12:17:50.183Z,4736
2017-10-10T12:19:00.559Z,4740
2017-10-10T12:20:10.608Z,4732
2017-10-10T12:21:20.951Z,4648
2017-10-10T12:22:31.318Z,4452
2017-10-10T12:23:41.688Z,4392
2017-10-10T12:24:52.040Z,4520
2017-10-10T12:26:02.062Z,4412
2017-10-10T12:27:14.858Z,4536
2017-10-10T12:28:27.304Z,9224
2017-10-10T12:29:37.740Z,9112
2017-10-10T12:30:48.095Z,9152
2017-10-10T12:31:57.810Z,8732
2017-10-10T12:33:07.838Z,7180
2017-10-10T12:34:18.198Z,5948
2017-10-10T12:35:28.238Z,8876
2017-10-10T12:36:37.908Z,5692
2017-10-10T12:37:47.966Z,8840
2017-10-10T12:38:58.331Z,8692
2017-10-10T12:40:08.344Z,8408
2017-10-10T12:41:18.687Z,4244
2017-10-10T12:42:29.082Z,3984
2017-10-10T12:43:39.466Z,4108
2017-10-10T12:44:49.758Z,3780
2017-10-10T12:45:59.464Z,3652
2017-10-10T12:47:09.823Z,3448
2017-10-10T12:48:20.188Z,3244
2017-10-10T12:49:30.198Z,3108
2017-10-10T12:50:40.192Z,2992
2017-10-10T12:51:50.221Z,2868
2017-10-10T12:53:00.726Z,2744
2017-10-10T12:54:11.055Z,2624
2017-10-10T12:55:20.420Z,2528
2017-10-10T12:56:30.449Z,2408
2017-10-10T12:57:40.806Z,2296
2017-10-10T12:58:50.829Z,2184
2017-10-10T13:00:00.867Z,2084
2017-10-10T13:01:11.264Z,2012
2017-10-10T13:02:21.590Z,1980
2017-10-10T13:03:31.945Z,1964
2017-10-10T13:04:42.297Z,1928
2017-10-10T13:05:52.306Z,1880
2017-10-10T13:07:02.670Z,1844
2017-10-10T13:08:13.021Z,1840
2017-10-10T13:09:23.078Z,1848
2017-10-10T13:10:33.405Z,1860
2017-10-10T13:11:43.769Z,1892
2017-10-10T13:12:53.807Z,1952
2017-10-10T13:14:04.211Z,2024
2017-10-10T13:15:14.560Z,2108
2017-10-10T13:16:24.572Z,2176
2017-10-10T13:17:34.920Z,2216
2017-10-10T13:18:45.285Z,2256
2017-10-10T13:19:55.643Z,2276
2017-10-10T13:21:05.680Z,2264
2017-10-10T13:22:15.707Z,2236
2017-10-10T13:23:26.073Z,2204
2017-10-10T13:24:36.420Z,2164
2017-10-10T13:25:46.792Z,2136
2017-10-10T13:26:56.804Z,2104
2017-10-10T13:28:09.630Z,2028
2017-10-10T13:29:23.172Z,1936
2017-10-10T13:30:33.876Z,1864
2017-10-10T13:31:44.241Z,1816
2017-10-10T13:32:54.598Z,1780
2017-10-10T13:34:04.635Z,1728
2017-10-10T13:35:14.687Z,1656
2017-10-10T13:36:25.089Z,1552
2017-10-10T13:37:35.124Z,1424
2017-10-10T13:38:45.468Z,1300
2017-10-10T13:39:55.511Z,1204
2017-10-10T13:41:05.854Z,1136
2017-10-10T13:42:15.932Z,1076
2017-10-10T13:43:26.306Z,1032
2017-10-10T13:44:36.349Z,1000
2017-10-10T13:45:46.711Z,988
2017-10-10T13:46:57.068Z,984
2017-10-10T13:48:07.427Z,976
2017-10-10T13:49:17.124Z,964
2017-10-10T13:50:27.489Z,952
2017-10-10T13:51:37.829Z,936
2017-10-10T13:52:48.173Z,912
2017-10-10T13:53:58.197Z,892
2017-10-10T13:55:08.583Z,900
2017-10-10T13:56:18.627Z,940
2017-10-10T13:57:29.004Z,992
2017-10-10T13:58:39.371Z,1056
2017-10-10T13:59:49.721Z,1096
2017-10-10T14:01:00.070Z,1104
2017-10-10T14:02:09.769Z,1112
2017-10-10T14:03:19.776Z,1112
2017-10-10T14:04:33.379Z,1096
2017-10-10T14:05:44.560Z,1072
2017-10-10T14:06:54.895Z,1036
2017-10-10T14:08:05.236Z,1016
2017-10-10T14:09:15.256Z,1016
2017-10-10T14:10:25.293Z,1004
2017-10-10T14:11:35.347Z,996
2017-10-10T14:12:45.687Z,1024
2017-10-10T14:13:56.041Z,1060
2017-10-10T14:15:06.417Z,1100
2017-10-10T14:16:16.449Z,1144
2017-10-10T14:17:26.471Z,1184
2017-10-10T14:18:36.494Z,1180
2017-10-10T14:19:46.509Z,1124
2017-10-10T14:20:56.542Z,1108
2017-10-10T14:22:06.884Z,1100
2017-10-10T14:23:17.253Z,1076
2017-10-10T14:24:27.637Z,1052
2017-10-10T14:25:37.982Z,1036
2017-10-10T14:26:48.342Z,1056
2017-10-10T14:27:58.361Z,1100
2017-10-10T14:29:08.727Z,1124
2017-10-10T14:30:18.754Z,1144
2017-10-10T14:31:28.779Z,1192
2017-10-10T14:32:39.136Z,1268
2017-10-10T14:33:49.486Z,1312
2017-10-10T14:34:59.851Z,1348
2017-10-10T14:36:09.891Z,1368
2017-10-10T14:37:19.954Z,1376
2017-10-10T14:38:30.296Z,1392
2017-10-10T14:39:40.318Z,1412
2017-10-10T14:40:50.379Z,1412
2017-10-10T14:42:00.717Z,1404
2017-10-10T14:43:11.061Z,1380
2017-10-10T14:44:21.418Z,1364
2017-10-10T14:45:31.837Z,3032
2017-10-10T14:46:41.579Z,1596
2017-10-10T14:47:51.598Z,1476
2017-10-10T14:49:01.950Z,1668
2017-10-10T14:50:11.961Z,2828
2017-10-10T14:51:22.326Z,2944
2017-10-10T14:52:32.729Z,1384
2017-10-10T14:53:43.061Z,1296
2017-10-10T14:54:52.777Z,1064
2017-10-10T14:56:03.113Z,980
2017-10-10T14:57:13.464Z,920
2017-10-10T14:58:23.861Z,1196
2017-10-10T14:59:33.963Z,1340
2017-10-10T15:00:44.052Z,1496
2017-10-10T15:01:54.476Z,1500
2017-10-10T15:03:04.904Z,1368
2017-10-10T15:04:15.348Z,1428
2017-10-10T15:05:25.420Z,1416
2017-10-10T15:06:34.851Z,1564
2017-10-10T15:07:45.263Z,1332
2017-10-10T15:08:55.669Z,1068
2017-10-10T15:10:06.109Z,1244
2017-10-10T15:11:16.216Z,968
2017-10-10T15:12:26.624Z,1252
2017-10-10T15:13:37.040Z,1456
2017-10-10T15:14:47.121Z,1340
2017-10-10T15:15:57.616Z,1316
2017-10-10T15:17:08.037Z,1304
2017-10-10T15:18:18.112Z,1280
2017-10-10T15:19:28.531Z,1232
2017-10-10T15:20:38.950Z,1200
2017-10-10T15:21:49.362Z,1196
2017-10-10T15:22:59.783Z,1148
2017-10-10T15:24:13.889Z,920
2017-10-10T15:25:25.213Z,1040
2017-10-10T15:26:35.630Z,616
2017-10-10T15:27:46.035Z,564
2017-10-10T15:28:56.441Z,532
2017-10-10T15:30:06.504Z,508
2017-10-10T15:31:16.920Z,496
2017-10-10T15:32:27.328Z,484
2017-10-10T15:33:37.451Z,460
2017-10-10T15:34:47.533Z,432
2017-10-10T15:35:57.615Z,412
2017-10-10T15:37:08.020Z,400
2017-10-10T15:38:17.439Z,388
2017-10-10T15:39:27.562Z,376
2017-10-10T15:40:37.632Z,368
2017-10-10T15:41:48.057Z,360
2017-10-10T15:42:58.467Z,344
2017-10-10T15:44:08.870Z,328
2017-10-10T15:45:19.339Z,320
2017-10-10T15:46:29.439Z,308
2017-10-10T15:47:39.534Z,300
2017-10-10T15:48:49.955Z,284
2017-10-10T15:50:00.037Z,268
2017-10-10T15:51:10.503Z,248
2017-10-10T15:52:20.930Z,232
2017-10-10T15:53:31.344Z,216
2017-10-10T15:54:41.454Z,200
2017-10-10T15:55:51.928Z,176
2017-10-10T15:57:02.480Z,152
2017-10-10T15:58:12.605Z,132
2017-10-10T15:59:23.093Z,120
2017-10-10T16:00:33.531Z,108
2017-10-10T16:01:43.273Z,100
2017-10-10T16:02:53.724Z,88
2017-10-10T16:04:04.140Z,76
2017-10-10T16:05:14.578Z,68
2017-10-10T16:06:24.739Z,60
2017-10-10T16:07:34.642Z,52
2017-10-10T16:08:45.218Z,44
2017-10-10T16:09:55.629Z,44
2017-10-10T16:11:06.047Z,40
2017-10-10T16:12:16.462Z,32
2017-10-10T16:13:26.551Z,32
2017-10-10T16:14:36.985Z,32
2017-10-10T16:15:47.113Z,24
2017-10-10T16:16:57.275Z,20
2017-10-10T16:18:07.493Z,20
2017-10-10T16:19:17.630Z,16
2017-10-10T16:20:28.101Z,16
2017-10-10T16:21:38.489Z,16
2017-10-10T16:22:48.910Z,12
2017-10-10T16:23:58.991Z,12
2017-10-10T16:25:09.452Z,8
2017-10-10T16:26:19.966Z,8
2017-10-10T16:27:30.136Z,8
2017-10-10T16:28:40.588Z,4
2017-10-10T16:29:50.670Z,4
2017-10-10T16:31:01.066Z,4
2017-10-10T16:32:11.468Z,4
2017-10-10T16:33:21.949Z,0
2017-10-10T16:34:32.384Z,4
2017-10-10T16:35:42.941Z,4
2017-10-10T16:36:53.411Z,4
2017-10-10T16:38:03.875Z,0
2017-10-10T16:39:15.673Z,0
2017-10-10T16:40:26.116Z,0